Aérodrome :
LOGIN :

S'inscrire | Disclaimer

   EN    FR    IT 

 










Légende :    VFR   VFR Marginal   IFR   IFR Intensif   IFR Très Intensif
Visi : 
Plafond : 
>= 8 km
>= 3000ft
5 à 8 km
1000 à 3000 ft
1500m à 5 km
500 à 1000 ft
800 à 1500m
200 à 500 ft
< 800m
< 200 ft
Symboles :   Orages  Brouillard  Fortes neiges  Fortes précipitations  Vent > 20 kt
SIGMETs :   Divers  Orages  Givrage  Turbulence  Onde Orograph.  Cendres Volcan.







- Altitude de l'aérodrome : 915 ft
- Code IATA : LUG


LSZA - Lugano

DERNIER METAR :
  • 231150Z 18003KT 8000 FEW015 SCT029 BKN050 12/10 Q1017 NOSIG

METARs EXPIRÉS :
  • 231120Z VRB02KT 7000 FEW015 SCT029 BKN050 13/10 Q1017 NOSIG
  • 231050Z 18003KT 6000 VCSH FEW015 SCT029 BKN050 13/10 Q1017 NOSIG
  • 231020Z 20003KT 170V250 6000 SHRA FEW015 BKN037 BKN050 13/10 Q1017 NOSIG
  • 230950Z VRB01KT 6000 SHRA FEW022 BKN032 BKN050 13/10 Q1017 NOSIG
  • 230920Z VRB01KT 6000 SHRA FEW022 BKN032 OVC048 12/10 Q1017 NOSIG

TAF TAF LSZA
Valide du 23 à 12h jusqu'au 23 à 21h UTC


231125Z 2312/2321 VRB03KT 6000 FEW015 SCT030 BKN050
TEMPO 2312/2321 SHRA SCT030TCU
PROB30
TEMPO 2312/2321 3000 TSRA SCT030CB
ATIS : +41 22 417 40 88
Pas de NOTAMs connus pour ce terrain.



MET'MAP, la Météo Aéronautique d'un coup d'oeil ! - Copyright ORBIFLY Décembre 2007 - Disclaimer

ORBIFLY MET'MAP TEAM :

Programmation & Développement : Alexandra Zaïnal
Conception & Développement : Baudouin d'Aumeries
Co-Programmation & Développement : Marc-Olivier Méhu
Soutien technique & logistique : Manuel Goepfert

Contact : metmap@orbifly.com




SOURCES & CREDITS :

   NOAA